ADDS METAR Data INFO
IDs: Format: Raw Decoded Include TAF

Data at: 0023 UTC 23 Oct 2017

KLWC 222352Z AUTO 00000KT 10SM CLR 12/08 A3009 RMK AO2 SLP189 T01170078 10206 20117 58002
KLWC 222252Z AUTO 30003KT 10SM CLR 18/04 A3009 RMK AO2 SLP187 T01780039
KLWC 222152Z AUTO 00000KT 10SM CLR 20/02 A3009 RMK AO2 SLP188 T02000017
KLWC 222052Z AUTO 25003KT 10SM CLR 20/02 A3009 RMK AO2 SLP188 T02000022 56016
KLWC 221952Z AUTO 31007KT 10SM CLR 20/04 A3010 RMK AO2 SLP190 T02000044
KLWC 221852Z AUTO 32009G15KT 10SM CLR 19/04 A3011 RMK AO2 SLP195 T01890044
KLWC 221752Z AUTO 30011KT 10SM CLR 17/09 A3014 RMK AO2 SLP204 T01720089 10172 20072 50003
KLWC 221652Z AUTO 28010KT 10SM CLR 14/08 A3015 RMK AO2 SLP210 T01440083
KLWC 221552Z AUTO 26010KT 10SM CLR 13/09 A3015 RMK AO2 SLP208 T01330094
KLWC 221452Z AUTO 29009KT 10SM CLR 11/09 A3013 RMK AO2 SLP203 T01110089 51013
KLWC 221352Z AUTO 30007KT 10SM CLR 09/08 A3012 RMK AO2 SLP200 T00940083
KLWC 221252Z AUTO 29007KT 10SM CLR 08/08 A3010 RMK AO2 SLP192 T00830078
KLWC 221152Z AUTO 29003KT 10SM CLR 09/09 A3009 RMK AO2 SLP189 60013 70230 T00890089 10111 20089 51034
KLWC 221052Z AUTO 31003KT 10SM CLR 09/09 A3008 RMK AO2 SLP184 T00940094
KLWC 220952Z AUTO 30003KT 10SM CLR 10/09 A3005 RMK AO2 SLP172 T01000094
KLWC 220852Z AUTO 00000KT 10SM CLR 11/09 A2999 RMK AO2 SLP151 60013 T01060094 50001
KLWC 220822Z AUTO 27004KT 10SM FEW075 SCT100 11/09 A3001 RMK AO2 LTG DSNT E AND SE T01060094
KLWC 220808Z AUTO 06003KT 10SM VCTS FEW080 OVC100 11/09 A3001 RMK AO2 LTG DSNT NE-SE T01060094
KLWC 220800Z AUTO 00000KT 10SM SCT080 OVC100 11/09 A3002 RMK AO2 LTG DSNT E T01060094
KLWC 220752Z AUTO 28007KT 10SM OVC095 11/09 A3004 RMK AO2 LTG DSNT E RAE46 PRESRR SLP168 P0004 T01060094
KLWC 220733Z AUTO 35009G16KT 310V020 10SM -RA OVC090 11/09 A2999 RMK AO2 LTG DSNT S P0004 T01110089
KLWC 220718Z AUTO 03010KT 10SM VCTS -RA OVC085 11/09 A2996 RMK AO2 LTG DSNT SE AND S P0002 T01060094
KLWC 220652Z AUTO 34006KT 9SM -RA FEW070 OVC085 11/09 A2998 RMK AO2 LTG DSNT SE AND SW AND NW SLP147 P0009 T01110094
KLWC 220640Z AUTO 34006KT 10SM VCTS -RA SCT070 OVC085 11/09 A2998 RMK AO2 LTG DSNT ALQDS P0007 T01110094
KLWC 220552Z AUTO 32009KT 7SM -RA OVC080 11/10 A2998 RMK AO2 LTG DSNT SW AND W SLP150 P0015 60141 T01110100 10161 20111 402440111 51020
KLWC 220538Z AUTO 31009KT 7SM RA OVC080 11/11 A2999 RMK AO2 LTG DSNT ALQDS P0012 T01110106
KLWC 220523Z AUTO 30009KT 8SM VCTS -RA OVC080 11/11 A3000 RMK AO2 LTG DSNT ALQDS P0007 T01110106
KLWC 220452Z AUTO 31010KT 7SM RA OVC085 12/11 A2998 RMK AO2 LTG DSNT ALQDS SLP149 P0019 T01170106
KLWC 220443Z AUTO 30009KT 7SM VCTS -RA OVC085 12/11 A2998 RMK AO2 LTG DSNT ALQDS P0016 T01170106
KLWC 220432Z AUTO 31010KT 7SM -RA OVC085 12/11 A2999 RMK AO2 LTG DSNT ALQDS P0013 T01170111
KLWC 220352Z AUTO 31011KT 4SM VCTS RA BR FEW041 SCT070 OVC085 12/12 A2997 RMK AO2 LTG DSNT ALQDS TSE00 SLP147 P0026 T01220117
KLWC 220327Z AUTO 29010KT 4SM VCTS RA BR BKN080 OVC090 13/12 A2996 RMK AO2 LTG DSNT ALQDS TSE00 P0014 T01280122
KLWC 220306Z AUTO 31011G17KT 6SM RA BR FEW015 OVC085 13/13 A2994 RMK AO2 LTG DSNT ALQDS TSE00 P0004 T01330128
KLWC 220252Z AUTO 32011KT 6SM TSRA BR OVC085 14/13 A2992 RMK AO2 LTG DSNT ALQDS TSB13E32B45 SLP130 P0013 60081 T01390128 51018
KLWC 220238Z AUTO 34011KT 7SM VCTS -RA OVC085 14/13 A2992 RMK AO2 LTG DSNT ALQDS TSB13E32 P0009 T01390133
KLWC 220219Z AUTO 29008KT 5SM -TSRA BR BKN075 OVC090 14/13 A2993 RMK AO2 LTG DSNT ALQDS TSB13 P0006 T01390133
KLWC 220152Z AUTO 31011KT 6SM VCTS RA BR FEW020 SCT060 OVC080 14/13 A2991 RMK AO2 WSHFT 0111 LTG DSNT ALQDS TSE21 SLP126 P0034 T01440133
KLWC 220125Z AUTO 32012G21KT 6SM VCTS -RA BR FEW020 SCT041 OVC080 16/14 A2989 RMK AO2 WSHFT 0111 LTG DSNT ALQDS TSE21 P0022 T01560139
KLWC 220120Z AUTO 32012KT 3SM TSRA BR FEW020 BKN043 OVC085 16/15 A2988 RMK AO2 LTG DSNT ALQDS P0022 T01560150
KLWC 220110Z AUTO 31009KT 1 1/2SM +TSRA BR FEW011 BKN038 OVC045 16/16 A2988 RMK AO2 LTG DSNT ALQDS P0016 T01610156
KLWC 220101Z AUTO 21006KT 2SM TSRA BR FEW013 BKN038 OVC045 16/16 A2990 RMK AO2 LTG DSNT ALQDS PRESRR P0005 T01610161
KLWC 220052Z AUTO 00000KT 2 1/2SM TSRA BR FEW013 BKN026 OVC038 16/16 A2987 RMK AO2 LTG DSNT ALQDS SLP110 P0034 T01610161
KLWC 220047Z AUTO 00000KT 2SM TSRA BR FEW015 BKN024 OVC080 16/16 A2987 RMK AO2 LTG DSNT ALQDS P0031
KLWC 220034Z AUTO 00000KT 1 3/4SM +TSRA BR SCT023 BKN034 OVC075 16/16 A2985 RMK AO2 LTG DSNT ALQDS P0023 T01610161
KLWC 220026Z AUTO 21009KT 9SM -TSRA FEW023 SCT034 OVC075 16/16 A2987 RMK AO2 LTG DSNT ALQDS PRESRR P0013 T01610161
KLWC 220017Z AUTO 35004KT 2SM -TSRA BR SCT033 BKN075 OVC095 16/16 A2981 RMK AO2 LTG DSNT ALQDS P0012 T01610161
KLWC 212359Z AUTO 35005KT 5SM -TSRA BR FEW005 BKN060 OVC095 16/16 A2980 RMK AO2 LTG DSNT ALQDS PRESFR P0001 T01610161
KLWC 212352Z AUTO 00000KT 2 1/2SM -TSRA BR FEW005 BKN070 OVC090 16/16 A2982 RMK AO2 PK WND 25032/2307 WSHFT 2302 LTG DSNT ALQDS RAB08 TSB2257 SLP093 P0076 60076 T01610161 10244 20161 53014
KLWC 212342Z AUTO 19007KT 1 3/4SM +TSRA BR FEW005 BKN049 OVC075 16/16 A2984 RMK AO2 PK WND 25032/2307 WSHFT 2302 LTG DSNT ALQDS RAB08 TSB2257 P0070 T01610161
KLWC 212328Z AUTO 32006KT 2 1/2SM TSRA BR SCT022 BKN034 OVC065 16/16 A2982 RMK AO2 PK WND 25032/2307 WSHFT 2302 LTG DSNT ALQDS RAB08 TSB2257 P0058 T01610161
KLWC 212323Z AUTO 27007G23KT 3/4SM +TSRA BR SCT013 BKN032 OVC050 16/16 A2983 RMK AO2 PK WND 25032/2307 WSHFT 2302 LTG DSNT ALQDS RAB08 TSB2257 P0055 T01610161
KLWC 212317Z AUTO 28010G28KT 1/2SM +TSRA FG BKN011 BKN035 OVC065 17/17 A2982 RMK AO2 PK WND 25032/2307 WSHFT 2302 LTG DSNT ALQDS RAB08 TSB2257 P0049 T01670167
KLWC 212312Z AUTO 27015G32KT 1 3/4SM +TSRA BR SCT013 BKN044 OVC060 18/17 A2984 RMK AO2 PK WND 25032/2307 LTG DSNT ALQDS RAB08 TSB2257 P0017 T01780167
KLWC 212303Z AUTO 28012G18KT 10SM TS FEW032 SCT050 OVC065 22/18 A2981 RMK AO2 LTG DSNT SW-N TSB2257 PRESRR T02220178
KLWC 212252Z AUTO 17008KT 10SM VCTS OVC065 23/18 A2978 RMK AO2 LTG DSNT SW-N SLP078 T02330183
KLWC 212236Z AUTO 15011KT 10SM VCTS BKN065 OVC090 24/18 A2977 RMK AO2 LTG DSNT SW-N T02390183
KLWC 212152Z AUTO 15012KT 10SM FEW035 BKN070 OVC080 24/18 A2977 RMK AO2 LTG DSNT W-N SLP076 T02390183
KLWC 212052Z AUTO 17012G20KT 10SM FEW041 BKN060 OVC075 24/18 A2978 RMK AO2 SLP076 T02440183 58007
KLWC 211952Z AUTO 17013G24KT 10SM SCT039 BKN050 OVC060 24/18 A2978 RMK AO2 PK WND 19026/1925 SLP079 T02390183
KLWC 211852Z AUTO 17013G22KT 10SM SCT030 BKN041 OVC055 23/18 A2980 RMK AO2 PK WND 16031/1801 SLP083 T02330183
KLWC 211752Z AUTO 17015G28KT 10SM OVC047 23/18 A2980 RMK AO2 PK WND 15031/1722 SLP084 T02330183 10233 20194 55005
KLWC 211726Z AUTO 16020G31KT 10SM SCT025 SCT030 BKN046 23/18 A2980 RMK AO2 PK WND 15031/1722 T02330183
KLWC 211652Z AUTO 16022G31KT 10SM BKN023 OVC042 22/18 A2980 RMK AO2 PK WND 15031/1652 SLP084 T02220178
KLWC 211552Z AUTO 16019G31KT 10SM BKN022 OVC028 21/17 A2981 RMK AO2 PK WND 16031/1548 SLP087 T02060172
KLWC 211452Z AUTO 15017G25KT 10SM OVC019 20/17 A2982 RMK AO2 PK WND 14030/1402 SLP091 T02000167 53005
KLWC 211352Z AUTO 16018G28KT 10SM OVC020 19/16 A2981 RMK AO2 PK WND 16028/1347 SLP089 T01940161
KLWC 211252Z AUTO 16016G22KT 10SM OVC023 19/16 A2980 RMK AO2 PK WND 15026/1154 SLP086 T01940161